Time;durP1;ratioP1;P1;durP2;ratioP2;P2;SDS_P1;SDS_P2;PMS_P1;PMS_P2;Temp;Humidity;BMP_temperature;BMP_pressure;BME280_temperature;BME280_humidity;BME280_pressure;Samples;Min_cycle;Max_cycle;Signal;HPM_P1;HPM_P2
2022/09/29 00:00:40;;;;;;;4.73;4.17;;;8.90;99.90;;;;;;5034138;28;20200;-72
2022/09/29 00:03:06;;;;;;;7.63;5.40;;;8.80;99.90;;;;;;5034186;28;20204;-72
2022/09/29 00:05:32;;;;;;;6.37;4.60;;;8.80;99.90;;;;;;5034041;28;20189;-71
2022/09/29 00:07:58;;;;;;;6.20;4.97;;;8.80;99.90;;;;;;5034228;28;20205;-72
2022/09/29 00:10:24;;;;;;;8.60;5.70;;;8.80;99.90;;;;;;5034145;28;20408;-73
2022/09/29 00:12:49;;;;;;;9.27;5.50;;;8.70;99.90;;;;;;5034314;28;20177;-73
2022/09/29 00:15:15;;;;;;;11.10;5.73;;;8.70;99.90;;;;;;5033789;28;20274;-72
2022/09/29 00:17:40;;;;;;;6.40;4.70;;;8.70;99.90;;;;;;5034077;28;20178;-73
2022/09/29 00:20:07;;;;;;;6.97;4.13;;;8.60;99.90;;;;;;5034036;28;20215;-73
2022/09/29 00:22:33;;;;;;;7.27;4.93;;;8.60;99.90;;;;;;5034086;28;20165;-72
2022/09/29 00:24:58;;;;;;;9.50;6.03;;;8.50;99.90;;;;;;5033660;28;20929;-73
2022/09/29 00:27:24;;;;;;;6.87;4.70;;;8.50;99.90;;;;;;5034006;28;20166;-73
2022/09/29 00:29:50;;;;;;;5.80;4.60;;;8.50;99.90;;;;;;5033400;28;20711;-73
2022/09/29 00:32:16;;;;;;;6.03;3.63;;;8.40;99.90;;;;;;5033789;28;20168;-73
2022/09/29 00:34:41;;;;;;;6.43;5.03;;;8.30;99.90;;;;;;5033230;28;20465;-73
2022/09/29 00:37:07;;;;;;;7.50;6.40;;;8.30;99.90;;;;;;5033171;28;20218;-72
2022/09/29 00:39:32;;;;;;;5.73;5.13;;;8.30;99.90;;;;;;5033601;28;20244;-72
2022/09/29 00:41:58;;;;;;;8.17;5.77;;;8.30;99.90;;;;;;5033183;28;20173;-73
2022/09/29 00:44:54;;;;;;;6.07;4.53;;;8.20;99.90;;;;;;5033183;28;20170;-73
2022/09/29 00:47:22;;;;;;;7.40;5.80;;;8.20;99.90;;;;;;5033121;28;20179;-73
2022/09/29 00:50:09;;;;;;;7.40;4.90;;;8.20;99.90;;;;;;5033090;28;20415;-72
2022/09/29 00:52:40;;;;;;;9.73;5.80;;;8.10;99.90;;;;;;5033334;28;20479;-72
2022/09/29 00:55:22;;;;;;;9.53;5.90;;;8.10;99.90;;;;;;5032567;28;20463;-72
2022/09/29 00:57:54;;;;;;;9.67;5.90;;;8.00;99.90;;;;;;5032762;28;20404;-72
2022/09/29 01:00:19;;;;;;;7.90;5.03;;;8.00;99.90;;;;;;5032693;28;20464;-72
2022/09/29 01:02:51;;;;;;;11.87;5.43;;;8.00;99.90;;;;;;5032681;28;20407;-73
2022/09/29 01:05:25;;;;;;;9.60;6.27;;;7.90;99.90;;;;;;5032458;28;20690;-72
2022/09/29 01:07:51;;;;;;;11.07;6.97;;;7.90;99.90;;;;;;5032539;28;20451;-72
2022/09/29 01:10:18;;;;;;;11.90;7.80;;;7.90;99.90;;;;;;5030992;28;20452;-72
2022/09/29 01:12:45;;;;;;;9.40;6.20;;;7.80;99.90;;;;;;5032565;28;20406;-72
2022/09/29 01:15:13;;;;;;;8.93;6.27;;;7.90;99.90;;;;;;5032227;28;20423;-72
2022/09/29 01:17:39;;;;;;;7.90;5.37;;;7.90;99.90;;;;;;5032607;28;20759;-72
2022/09/29 01:20:19;;;;;;;8.23;5.47;;;7.80;99.90;;;;;;5032830;28;20442;-72
2022/09/29 01:23:18;;;;;;;6.00;4.80;;;7.80;99.90;;;;;;5032223;28;20641;-71
2022/09/29 01:26:17;;;;;;;6.77;4.30;;;7.80;99.90;;;;;;5030562;28;20423;-71
2022/09/29 01:28:59;;;;;;;5.73;4.53;;;7.80;99.90;;;;;;5032213;28;20398;-71
2022/09/29 01:31:50;;;;;;;7.03;5.07;;;7.80;99.90;;;;;;5032055;28;20447;-72
2022/09/29 01:34:35;;;;;;;5.27;4.20;;;7.70;99.90;;;;;;5030516;28;20461;-71
2022/09/29 01:37:33;;;;;;;5.87;4.63;;;7.70;99.90;;;;;;5031171;28;20456;-71
2022/09/29 01:40:14;;;;;;;6.73;4.83;;;7.70;99.90;;;;;;5031999;28;20406;-71
2022/09/29 01:42:51;;;;;;;7.57;4.80;;;7.70;99.90;;;;;;5031906;28;20391;-71
2022/09/29 01:45:31;;;;;;;7.43;5.07;;;7.70;99.90;;;;;;5031564;28;20827;-71
2022/09/29 01:48:01;;;;;;;6.20;5.33;;;7.70;99.90;;;;;;5031865;28;20409;-72
2022/09/29 01:50:49;;;;;;;5.53;4.70;;;7.80;99.90;;;;;;5031888;28;20481;-72
2022/09/29 01:53:34;;;;;;;5.40;4.70;;;7.70;99.90;;;;;;5031684;28;20446;-72
2022/09/29 01:56:05;;;;;;;7.43;4.70;;;7.70;99.90;;;;;;5031419;28;20537;-72
2022/09/29 01:58:47;;;;;;;5.10;3.70;;;7.70;99.90;;;;;;5030424;28;20753;-72
2022/09/29 02:01:15;;;;;;;8.17;5.17;;;7.70;99.90;;;;;;5031196;28;20404;-72
2022/09/29 02:03:45;;;;;;;6.10;4.90;;;7.70;99.90;;;;;;5031607;28;20425;-72
2022/09/29 02:06:17;;;;;;;6.73;4.97;;;7.70;99.90;;;;;;5029785;28;20461;-72
2022/09/29 02:08:51;;;;;;;9.40;4.77;;;7.60;99.90;;;;;;5031498;28;20402;-72
2022/09/29 02:11:17;;;;;;;7.90;5.20;;;7.70;99.90;;;;;;5031417;28;20405;-71
2022/09/29 02:14:05;;;;;;;7.90;5.07;;;7.70;99.90;;;;;;5031291;28;21029;-70
2022/09/29 02:16:35;;;;;;;10.83;5.60;;;7.70;99.90;;;;;;5031321;28;20448;-70
2022/09/29 02:19:09;;;;;;;6.67;4.73;;;7.80;99.90;;;;;;5031387;28;20402;-70
2022/09/29 02:21:35;;;;;;;7.03;5.53;;;7.70;99.90;;;;;;5031308;28;20936;-71
2022/09/29 02:24:01;;;;;;;7.23;5.73;;;7.70;99.90;;;;;;5031243;28;20407;-72
2022/09/29 02:26:34;;;;;;;6.33;5.03;;;7.70;99.90;;;;;;5031060;28;20431;-72
2022/09/29 02:29:02;;;;;;;10.10;5.93;;;7.70;99.90;;;;;;5031095;28;20172;-71
2022/09/29 02:31:28;;;;;;;7.47;5.57;;;7.70;99.90;;;;;;5031070;28;20501;-71
2022/09/29 02:33:53;;;;;;;7.10;5.30;;;7.70;99.90;;;;;;5031233;28;20546;-71
2022/09/29 02:36:43;;;;;;;7.23;5.73;;;7.80;99.90;;;;;;5030826;28;20204;-71
2022/09/29 02:39:35;;;;;;;8.30;5.70;;;7.80;99.90;;;;;;5031101;28;20161;-71
2022/09/29 02:42:18;;;;;;;11.63;6.63;;;7.90;99.90;;;;;;5031103;28;20741;-71
2022/09/29 02:44:51;;;;;;;8.77;5.70;;;8.00;99.90;;;;;;5030860;28;20510;-71
2022/09/29 02:47:34;;;;;;;7.77;5.73;;;8.10;99.90;;;;;;5031049;28;20402;-71
2022/09/29 02:50:35;;;;;;;8.30;6.00;;;8.00;99.90;;;;;;5031012;28;20408;-71
2022/09/29 02:53:34;;;;;;;10.77;6.13;;;8.10;99.90;;;;;;5031255;28;20883;-71
2022/09/29 02:56:38;;;;;;;9.20;6.63;;;8.30;99.90;;;;;;5016955;28;20448;-72
2022/09/29 02:59:19;;;;;;;8.03;6.47;;;8.30;99.90;;;;;;4994013;28;20418;-72
2022/09/29 03:01:50;;;;;;;7.03;5.57;;;8.30;99.90;;;;;;5030923;28;20482;-71
2022/09/29 03:04:17;;;;;;;6.57;4.90;;;8.30;99.90;;;;;;5030984;28;20403;-71
2022/09/29 03:06:42;;;;;;;7.07;5.53;;;8.40;99.90;;;;;;5029744;28;20901;-72
2022/09/29 03:09:08;;;;;;;8.10;5.97;;;8.40;99.90;;;;;;5031224;28;20406;-71
2022/09/29 03:11:33;;;;;;;6.93;5.47;;;8.40;99.90;;;;;;5031146;28;20215;-71
2022/09/29 03:13:59;;;;;;;7.83;6.30;;;8.50;99.90;;;;;;5034586;28;20654;-71
2022/09/29 03:16:25;;;;;;;10.13;6.03;;;8.40;99.90;;;;;;5034117;28;20197;-71
2022/09/29 03:18:51;;;;;;;7.67;6.17;;;8.40;99.90;;;;;;5033143;28;20876;-71
2022/09/29 03:21:17;;;;;;;11.70;7.23;;;8.50;99.90;;;;;;5034469;28;20484;-71
2022/09/29 03:23:42;;;;;;;9.57;7.10;;;8.50;99.90;;;;;;5034270;28;20165;-71
2022/09/29 03:26:08;;;;;;;9.37;7.03;;;8.50;99.90;;;;;;5034317;28;20189;-71
2022/09/29 03:28:34;;;;;;;9.97;7.67;;;8.50;99.90;;;;;;5034388;28;20172;-71
2022/09/29 03:31:05;;;;;;;9.20;6.33;;;8.50;99.90;;;;;;5034214;28;20505;-71
2022/09/29 03:33:31;;;;;;;10.97;7.17;;;8.50;99.90;;;;;;5033444;28;20496;-71
2022/09/29 03:35:56;;;;;;;9.07;6.40;;;8.50;99.90;;;;;;5033768;28;20821;-71
2022/09/29 03:38:22;;;;;;;9.00;7.07;;;8.50;99.90;;;;;;5033989;28;20196;-71
2022/09/29 03:40:47;;;;;;;9.80;6.37;;;8.50;99.90;;;;;;5034094;28;20165;-71
2022/09/29 03:43:13;;;;;;;9.40;7.43;;;8.50;99.90;;;;;;5033852;28;20649;-71
2022/09/29 03:45:53;;;;;;;11.67;7.10;;;8.50;99.90;;;;;;5033715;28;20199;-71
2022/09/29 03:48:19;;;;;;;9.03;7.77;;;8.60;99.90;;;;;;5033882;28;20592;-71
2022/09/29 03:50:46;;;;;;;11.87;7.20;;;8.60;99.90;;;;;;5033843;28;20431;-71
2022/09/29 03:53:12;;;;;;;10.53;6.80;;;8.60;99.90;;;;;;5033886;28;20461;-71
2022/09/29 03:55:38;;;;;;;10.80;7.50;;;8.60;99.90;;;;;;5033308;28;20447;-71
2022/09/29 03:58:04;;;;;;;8.77;6.80;;;8.60;99.90;;;;;;5033947;28;20407;-71
2022/09/29 04:00:30;;;;;;;11.10;7.30;;;8.60;99.90;;;;;;5033719;28;20326;-71
2022/09/29 04:02:56;;;;;;;13.53;7.20;;;8.60;99.90;;;;;;5034092;28;20173;-72
2022/09/29 04:05:21;;;;;;;10.20;7.40;;;8.60;99.90;;;;;;5033758;28;20245;-71
2022/09/29 04:07:47;;;;;;;10.40;7.67;;;8.60;99.90;;;;;;5033831;28;20485;-71
2022/09/29 04:10:13;;;;;;;9.07;6.00;;;8.60;99.90;;;;;;5033884;28;20164;-72
2022/09/29 04:12:38;;;;;;;9.10;7.27;;;8.60;99.90;;;;;;5033602;28;20181;-72
2022/09/29 04:15:05;;;;;;;10.80;7.23;;;8.60;99.90;;;;;;5033151;28;20456;-71
2022/09/29 04:17:30;;;;;;;9.43;7.63;;;8.60;99.90;;;;;;5032330;28;20175;-71
2022/09/29 04:19:56;;;;;;;9.27;7.13;;;8.60;99.90;;;;;;5033735;28;20408;-72
2022/09/29 04:22:21;;;;;;;12.13;8.97;;;8.60;99.90;;;;;;5033223;28;20182;-71
2022/09/29 04:24:47;;;;;;;12.60;8.57;;;8.60;99.90;;;;;;5033232;28;20204;-71
2022/09/29 04:27:13;;;;;;;9.90;7.23;;;8.70;99.90;;;;;;5033414;28;20167;-71
2022/09/29 04:29:39;;;;;;;7.80;6.93;;;8.70;99.90;;;;;;5033397;28;20176;-71
2022/09/29 04:32:05;;;;;;;8.17;6.60;;;8.70;99.90;;;;;;5033230;28;20752;-72
2022/09/29 04:34:31;;;;;;;9.27;8.33;;;8.70;99.90;;;;;;5032830;28;20253;-72
2022/09/29 04:36:56;;;;;;;11.50;7.80;;;8.70;99.90;;;;;;5033173;28;20408;-72
2022/09/29 04:39:22;;;;;;;10.60;7.87;;;8.70;99.90;;;;;;5033117;28;20168;-72
2022/09/29 04:41:47;;;;;;;8.87;7.37;;;8.70;99.90;;;;;;5033123;28;20276;-72
2022/09/29 04:44:13;;;;;;;11.23;7.80;;;8.70;99.90;;;;;;5032761;28;20191;-72
2022/09/29 04:46:39;;;;;;;9.23;7.30;;;8.70;99.90;;;;;;5032631;28;20240;-72
2022/09/29 04:49:04;;;;;;;9.57;7.60;;;8.70;99.90;;;;;;5033080;28;20200;-72
2022/09/29 04:51:30;;;;;;;9.87;6.73;;;8.70;99.90;;;;;;5033012;28;20351;-72
2022/09/29 04:53:57;;;;;;;7.83;6.60;;;8.70;99.90;;;;;;5033234;28;20195;-72
2022/09/29 04:56:23;;;;;;;8.77;6.90;;;8.70;99.90;;;;;;5071488;23;20218;-77
2022/09/29 04:58:48;;;;;;;8.90;7.30;;;8.70;99.90;;;;;;5064481;28;20957;-75
2022/09/29 05:01:14;;;;;;;10.40;7.60;;;8.70;99.90;;;;;;5073532;28;20163;-76
2022/09/29 05:03:40;;;;;;;8.10;6.97;;;8.70;99.90;;;;;;5073489;28;20167;-76
2022/09/29 05:06:08;;;;;;;10.60;7.50;;;8.80;99.90;;;;;;5082894;28;20195;-75
2022/09/29 05:08:34;;;;;;;10.27;7.57;;;8.80;99.90;;;;;;5093935;28;20499;-75
2022/09/29 05:11:09;;;;;;;11.30;7.70;;;8.80;99.90;;;;;;5094250;28;20407;-75
2022/09/29 05:13:36;;;;;;;10.27;7.37;;;8.80;99.90;;;;;;5094087;28;20448;-75
2022/09/29 05:16:02;;;;;;;8.43;7.23;;;8.80;99.90;;;;;;5094023;28;20905;-76
2022/09/29 05:18:28;;;;;;;10.00;8.93;;;8.80;99.90;;;;;;5093596;28;20394;-76
2022/09/29 05:20:54;;;;;;;11.70;8.20;;;8.80;99.90;;;;;;5093534;28;20482;-76
2022/09/29 05:23:20;;;;;;;17.03;8.37;;;8.90;99.90;;;;;;5093382;28;20423;-76
2022/09/29 05:25:46;;;;;;;10.33;7.70;;;8.90;99.90;;;;;;5093171;28;20766;-76
2022/09/29 05:28:13;;;;;;;12.03;8.70;;;9.50;99.90;;;;;;5093441;28;20831;-76
2022/09/29 05:30:39;;;;;;;13.67;8.00;;;9.50;99.90;;;;;;5093688;28;20415;-76
2022/09/29 05:33:05;;;;;;;12.40;8.30;;;9.30;99.90;;;;;;5093959;28;20444;-76
2022/09/29 05:35:31;;;;;;;10.87;7.90;;;9.10;99.90;;;;;;5093478;28;20467;-75
2022/09/29 05:37:57;;;;;;;12.27;8.90;;;9.10;99.90;;;;;;5092962;28;20488;-75
2022/09/29 05:40:23;;;;;;;11.30;8.70;;;9.10;99.90;;;;;;5093119;28;20162;-77
2022/09/29 05:42:49;;;;;;;12.77;7.60;;;9.10;99.90;;;;;;5092681;28;20257;-77
2022/09/29 05:45:15;;;;;;;10.90;8.00;;;9.20;99.90;;;;;;5092635;28;20774;-77
2022/09/29 05:47:42;;;;;;;13.90;9.93;;;9.20;99.90;;;;;;5092626;28;20415;-76
2022/09/29 05:50:09;;;;;;;11.53;8.90;;;9.20;99.90;;;;;;5092743;28;20201;-77
2022/09/29 05:52:34;;;;;;;9.93;7.30;;;9.30;99.90;;;;;;5075032;28;20419;-77
2022/09/29 05:55:00;;;;;;;13.17;9.33;;;9.30;99.90;;;;;;5095120;28;20457;-77
2022/09/29 05:57:26;;;;;;;11.83;8.70;;;9.30;99.90;;;;;;5101484;28;20225;-78
2022/09/29 05:59:51;;;;;;;13.17;8.93;;;9.30;99.90;;;;;;5108649;28;20158;-80
2022/09/29 06:02:17;;;;;;;13.63;7.80;;;9.30;99.90;;;;;;5111087;28;20193;-80
2022/09/29 06:04:43;;;;;;;14.03;8.50;;;9.30;99.90;;;;;;5107046;28;20653;-80
2022/09/29 06:07:08;;;;;;;13.57;8.53;;;9.30;99.90;;;;;;5101741;28;20426;-79
2022/09/29 06:09:37;;;;;;;12.87;8.97;;;9.40;99.90;;;;;;5101422;28;20199;-79
2022/09/29 06:12:03;;;;;;;14.23;8.97;;;9.50;99.90;;;;;;5099967;28;20191;-80
2022/09/29 06:14:28;;;;;;;12.50;7.93;;;9.50;99.90;;;;;;5098660;28;20451;-79
2022/09/29 06:16:54;;;;;;;13.20;8.73;;;9.50;99.90;;;;;;5101523;28;20480;-79
2022/09/29 06:19:20;;;;;;;12.10;7.70;;;9.60;99.90;;;;;;5097852;28;20588;-77
2022/09/29 06:21:45;;;;;;;10.80;8.23;;;9.50;99.90;;;;;;5096331;28;20403;-80
2022/09/29 06:24:11;;;;;;;17.63;8.80;;;9.60;99.90;;;;;;5102603;28;20192;-80
2022/09/29 06:26:37;;;;;;;10.63;6.97;;;9.60;99.90;;;;;;5102495;28;20196;-79
2022/09/29 06:29:03;;;;;;;14.33;9.73;;;9.70;99.90;;;;;;5102798;28;20173;-79
2022/09/29 06:31:30;;;;;;;11.03;7.60;;;9.80;99.90;;;;;;5086208;28;20408;-80
2022/09/29 06:34:02;;;;;;;11.43;8.80;;;9.80;99.90;;;;;;5085653;28;20462;-79
2022/09/29 06:39:24;;;;;;;16.80;8.00;;;9.80;99.90;;;;;;5103723;28;20398;-79
2022/09/29 06:41:55;;;;;;;9.40;8.17;;;9.90;99.90;;;;;;5104143;28;20431;-79
2022/09/29 06:44:23;;;;;;;11.97;8.13;;;9.90;99.90;;;;;;5103761;28;20189;-80
2022/09/29 06:46:50;;;;;;;11.47;7.90;;;9.90;99.90;;;;;;5105939;28;20819;-79
2022/09/29 06:49:16;;;;;;;14.30;7.90;;;9.90;99.90;;;;;;5108550;28;20396;-80
2022/09/29 06:51:43;;;;;;;11.20;7.40;;;9.90;99.90;;;;;;5107953;28;20418;-80
2022/09/29 06:54:13;;;;;;;16.90;9.00;;;10.00;99.90;;;;;;5109092;28;20533;-80
2022/09/29 06:56:39;;;;;;;12.30;8.77;;;10.10;99.90;;;;;;5107218;28;20492;-79
2022/09/29 06:59:06;;;;;;;10.10;8.63;;;10.20;99.90;;;;;;5106741;28;20399;-79
2022/09/29 07:01:31;;;;;;;10.87;8.00;;;10.20;99.90;;;;;;5088282;28;20407;-79
2022/09/29 07:03:59;;;;;;;11.00;8.17;;;10.10;99.90;;;;;;5106226;28;20422;-79
2022/09/29 07:06:25;;;;;;;7.90;6.50;;;10.00;99.90;;;;;;5105943;28;20624;-79
2022/09/29 07:08:58;;;;;;;12.13;7.60;;;10.00;99.90;;;;;;5108125;28;20426;-79
2022/09/29 07:11:25;;;;;;;10.90;7.30;;;10.10;99.90;;;;;;5108326;28;20407;-79
2022/09/29 07:13:51;;;;;;;13.00;8.50;;;10.10;99.90;;;;;;5091329;28;20439;-79
2022/09/29 07:16:17;;;;;;;13.93;9.60;;;10.20;99.90;;;;;;5104438;28;20457;-78
2022/09/29 07:18:43;;;;;;;14.20;8.20;;;10.20;99.90;;;;;;5106964;28;20495;-79
2022/09/29 07:21:11;;;;;;;11.43;7.80;;;10.20;99.90;;;;;;5111335;28;20396;-79
2022/09/29 07:23:37;;;;;;;10.77;7.50;;;10.20;99.90;;;;;;5106188;28;20408;-79
2022/09/29 07:26:05;;;;;;;9.93;7.53;;;10.20;99.90;;;;;;5104860;28;20447;-79
2022/09/29 07:28:31;;;;;;;15.60;7.67;;;10.20;99.90;;;;;;5104902;28;20791;-80
2022/09/29 07:31:02;;;;;;;10.50;8.80;;;10.20;99.90;;;;;;5104861;28;20411;-80
2022/09/29 07:33:29;;;;;;;11.97;8.27;;;10.20;99.90;;;;;;5101220;28;20477;-78
2022/09/29 07:35:54;;;;;;;10.23;6.70;;;10.30;99.90;;;;;;5097755;28;20886;-78
2022/09/29 07:38:20;;;;;;;13.17;9.03;;;10.20;99.90;;;;;;5097347;28;20435;-78
2022/09/29 07:40:46;;;;;;;12.13;7.30;;;10.20;99.90;;;;;;5098010;28;20512;-78
2022/09/29 07:43:11;;;;;;;14.17;8.07;;;10.20;99.90;;;;;;5095883;28;20400;-77
2022/09/29 07:45:37;;;;;;;12.00;8.33;;;10.30;99.90;;;;;;5096177;28;20283;-77
2022/09/29 07:48:03;;;;;;;11.83;7.80;;;10.30;99.90;;;;;;5097281;28;20169;-77
2022/09/29 07:50:28;;;;;;;13.60;8.70;;;10.40;99.90;;;;;;5096648;28;20193;-77
2022/09/29 07:52:54;;;;;;;9.07;6.63;;;10.30;99.90;;;;;;5097498;28;20172;-79
2022/09/29 07:55:20;;;;;;;13.40;8.40;;;10.30;99.90;;;;;;5095671;28;20246;-77
2022/09/29 07:57:49;;;;;;;12.67;7.93;;;10.30;99.90;;;;;;5095566;28;20172;-77
2022/09/29 08:00:16;;;;;;;13.47;8.00;;;10.30;99.90;;;;;;5096147;28;20486;-78
2022/09/29 08:02:42;;;;;;;13.53;8.00;;;10.50;99.90;;;;;;5096344;28;20490;-78
2022/09/29 08:05:08;;;;;;;10.63;8.10;;;10.50;99.90;;;;;;5096148;28;20414;-78
2022/09/29 08:07:33;;;;;;;9.00;7.00;;;10.60;99.90;;;;;;5097010;28;20411;-78
2022/09/29 08:09:59;;;;;;;11.00;8.50;;;10.30;99.90;;;;;;5096173;28;20458;-78
2022/09/29 08:12:25;;;;;;;14.80;10.50;;;10.40;99.90;;;;;;5095879;28;20256;-78
2022/09/29 08:14:51;;;;;;;13.73;8.93;;;10.40;99.90;;;;;;5097313;28;20188;-79
2022/09/29 08:17:16;;;;;;;11.23;8.53;;;10.50;99.90;;;;;;5102932;28;20423;-79
2022/09/29 08:19:42;;;;;;;10.13;7.77;;;10.50;99.90;;;;;;5102967;28;20162;-79
2022/09/29 08:22:07;;;;;;;14.23;8.40;;;10.80;99.90;;;;;;5100214;28;20166;-78
2022/09/29 08:24:35;;;;;;;12.00;8.50;;;10.70;99.90;;;;;;5096978;28;20175;-78
2022/09/29 08:27:02;;;;;;;13.60;9.10;;;10.90;99.90;;;;;;5078136;28;20190;-78
2022/09/29 08:29:27;;;;;;;14.00;8.97;;;10.90;99.90;;;;;;5095942;28;20465;-78
2022/09/29 08:31:54;;;;;;;13.03;7.97;;;11.00;99.90;;;;;;5078087;28;20910;-78
2022/09/29 08:34:19;;;;;;;11.83;8.50;;;11.00;99.90;;;;;;5096231;28;20205;-77
2022/09/29 08:36:45;;;;;;;10.93;8.30;;;11.10;99.90;;;;;;5097580;28;20561;-78
2022/09/29 08:39:11;;;;;;;13.13;8.60;;;11.10;99.90;;;;;;5100339;28;20236;-78
2022/09/29 08:41:56;;;;;;;11.20;7.77;;;11.10;99.90;;;;;;5100699;28;20158;-78
2022/09/29 08:44:37;;;;;;;13.57;9.60;;;11.00;99.90;;;;;;5099768;28;20165;-77
2022/09/29 08:47:02;;;;;;;11.53;8.50;;;11.40;99.90;;;;;;5095047;28;20428;-74
2022/09/29 08:49:38;;;;;;;11.27;8.90;;;11.40;99.90;;;;;;5096492;28;20411;-78
2022/09/29 08:52:18;;;;;;;11.43;8.30;;;11.30;99.90;;;;;;5097579;28;20169;-78
2022/09/29 08:54:46;;;;;;;11.40;8.70;;;11.30;99.90;;;;;;5097102;28;20859;-78
2022/09/29 08:57:16;;;;;;;11.00;8.90;;;11.20;99.90;;;;;;5100117;28;20503;-79
2022/09/29 08:59:42;;;;;;;14.27;9.07;;;11.30;99.90;;;;;;5097887;28;20424;-75
2022/09/29 09:02:26;;;;;;;16.63;8.40;;;11.50;99.90;;;;;;5100578;28;20411;-79
2022/09/29 09:05:18;;;;;;;11.37;8.70;;;11.70;99.90;;;;;;5101259;28;20173;-80
2022/09/29 09:08:05;;;;;;;13.13;9.90;;;11.90;99.90;;;;;;5081031;28;20451;-75
2022/09/29 09:10:49;;;;;;;13.27;9.53;;;11.90;99.90;;;;;;5097459;28;20809;-77
2022/09/29 09:13:32;;;;;;;15.50;8.23;;;12.10;99.90;;;;;;5095560;28;20427;-80
2022/09/29 09:16:07;;;;;;;10.03;8.00;;;12.00;99.90;;;;;;5077555;28;20453;-81
2022/09/29 09:18:58;;;;;;;12.80;9.47;;;12.10;99.90;;;;;;5096292;28;20972;-78
2022/09/29 09:21:43;;;;;;;12.33;9.30;;;12.10;99.90;;;;;;5094086;28;20407;-77
2022/09/29 09:24:09;;;;;;;12.73;8.40;;;12.40;99.90;;;;;;5094056;28;20774;-75
2022/09/29 09:26:44;;;;;;;9.73;8.60;;;12.60;99.90;;;;;;5094674;28;20764;-79
2022/09/29 09:29:24;;;;;;;11.87;7.80;;;12.60;99.90;;;;;;5095185;28;20426;-77
2022/09/29 09:31:59;;;;;;;20.90;8.80;;;12.70;99.90;;;;;;5096619;28;20404;-76
2022/09/29 09:34:52;;;;;;;12.40;9.13;;;13.00;99.90;;;;;;5094870;28;20870;-76
2022/09/29 09:37:24;;;;;;;9.60;8.27;;;13.30;99.90;;;;;;5094331;28;20413;-76
2022/09/29 09:39:59;;;;;;;9.30;7.97;;;13.10;99.90;;;;;;5093652;28;20402;-75
2022/09/29 09:42:30;;;;;;;9.73;7.53;;;12.90;99.90;;;;;;5090900;28;20404;-75
2022/09/29 09:45:09;;;;;;;10.07;7.93;;;13.20;99.90;;;;;;5078112;28;20404;-77
2022/09/29 09:47:41;;;;;;;11.70;8.63;;;13.30;99.90;;;;;;5084105;28;20397;-76
2022/09/29 09:50:18;;;;;;;11.27;8.73;;;13.10;99.90;;;;;;5073055;28;20628;-78
2022/09/29 09:52:50;;;;;;;11.53;8.27;;;13.00;99.90;;;;;;5065209;28;20405;-76
2022/09/29 09:55:17;;;;;;;9.77;7.00;;;13.10;99.90;;;;;;5056647;28;20449;-77
2022/09/29 09:58:22;;;;;;;15.97;7.03;;;13.30;99.90;;;;;;5045526;28;20416;-77
2022/09/29 10:00:54;;;;;;;12.67;7.80;;;13.40;99.90;;;;;;5085044;28;20451;-79
2022/09/29 10:03:20;;;;;;;8.50;6.73;;;13.30;99.90;;;;;;5091750;28;20415;-79
2022/09/29 10:05:47;;;;;;;8.23;6.50;;;13.10;99.90;;;;;;5091447;28;20420;-79
2022/09/29 10:08:28;;;;;;;10.93;7.57;;;13.10;99.90;;;;;;5089921;28;20400;-79
2022/09/29 10:10:55;;;;;;;7.93;6.90;;;13.30;99.90;;;;;;5081261;28;20407;-78
2022/09/29 10:13:24;;;;;;;11.63;7.93;;;13.40;99.90;;;;;;5063704;28;20448;-78
2022/09/29 10:15:55;;;;;;;11.40;7.97;;;13.50;99.90;;;;;;5081585;28;20420;-80
2022/09/29 10:18:28;;;;;;;7.97;6.30;;;13.40;99.90;;;;;;5066480;28;20444;-78
2022/09/29 10:20:53;;;;;;;9.40;7.23;;;13.50;99.90;;;;;;5056070;28;20462;-76
2022/09/29 10:23:31;;;;;;;7.77;6.73;;;13.50;99.90;;;;;;5058445;28;20429;-78
2022/09/29 10:26:08;;;;;;;7.23;6.13;;;13.80;99.90;;;;;;5058229;28;20214;-77
2022/09/29 10:29:16;;;;;;;6.33;5.27;;;13.90;99.90;;;;;;5057923;28;20489;-78
2022/09/29 10:31:42;;;;;;;5.13;4.63;;;14.00;99.90;;;;;;5035152;28;20417;-77
2022/09/29 10:34:22;;;;;;;5.87;5.20;;;14.00;99.90;;;;;;5053243;28;20509;-77
2022/09/29 10:36:52;;;;;;;5.70;4.77;;;14.30;99.90;;;;;;5057326;28;20545;-79
2022/09/29 10:39:38;;;;;;;6.33;5.73;;;14.10;99.90;;;;;;5058819;28;20487;-79
2022/09/29 10:42:15;;;;;;;6.50;4.80;;;14.50;99.90;;;;;;5058764;28;20398;-79
2022/09/29 10:44:41;;;;;;;5.80;4.03;;;14.50;99.90;;;;;;5041406;28;21009;-79
2022/09/29 10:47:13;;;;;;;6.37;4.80;;;14.50;99.90;;;;;;5056821;28;20445;-78
2022/09/29 10:49:39;;;;;;;8.17;5.07;;;14.50;99.90;;;;;;5056846;28;20167;-78
2022/09/29 10:52:16;;;;;;;6.20;5.30;;;14.00;99.90;;;;;;5070274;28;20433;-78
2022/09/29 10:54:57;;;;;;;5.80;5.03;;;14.40;99.90;;;;;;5090442;28;20193;-78
2022/09/29 10:57:26;;;;;;;6.30;5.30;;;14.10;99.90;;;;;;5081106;22;20528;-72
2022/09/29 10:59:54;;;;;;;6.67;4.40;;;14.00;99.90;;;;;;5043054;28;20407;-72
2022/09/29 11:02:36;;;;;;;6.50;4.73;;;14.30;99.90;;;;;;5050130;28;20417;-73
2022/09/29 11:05:17;;;;;;;6.20;4.93;;;14.40;99.90;;;;;;5051450;28;20394;-73
2022/09/29 11:07:45;;;;;;;5.60;4.53;;;14.50;99.90;;;;;;5051334;28;20794;-72
2022/09/29 11:10:37;;;;;;;4.43;3.83;;;14.20;99.90;;;;;;5051403;28;20397;-72
2022/09/29 11:13:23;;;;;;;4.97;4.10;;;14.30;99.90;;;;;;5051664;28;20401;-73
2022/09/29 11:15:49;;;;;;;3.80;3.50;;;14.40;99.90;;;;;;5040502;28;20862;-73
2022/09/29 11:18:30;;;;;;;4.20;3.80;;;14.50;99.90;;;;;;5051406;28;20394;-73
2022/09/29 11:21:22;;;;;;;4.30;3.60;;;14.60;99.90;;;;;;5051384;28;20200;-74
2022/09/29 11:23:58;;;;;;;8.13;4.20;;;14.30;99.90;;;;;;5051147;28;20403;-72
2022/09/29 11:26:45;;;;;;;6.90;4.53;;;14.00;99.90;;;;;;5051018;28;20419;-72
2022/09/29 11:29:14;;;;;;;5.50;4.77;;;13.80;99.90;;;;;;5051493;28;20921;-73
2022/09/29 11:31:58;;;;;;;6.13;4.30;;;14.00;99.90;;;;;;5051979;28;20512;-71
2022/09/29 11:34:41;;;;;;;6.53;4.40;;;14.00;99.90;;;;;;5054638;28;20519;-70
2022/09/29 11:37:31;;;;;;;4.57;3.83;;;13.70;99.90;;;;;;5054853;28;20413;-70
2022/09/29 11:40:01;;;;;;;5.37;4.10;;;13.70;99.90;;;;;;5055083;28;20547;-73
2022/09/29 11:42:41;;;;;;;4.20;3.80;;;13.90;99.90;;;;;;5055348;28;20401;-72
2022/09/29 11:45:16;;;;;;;4.40;3.37;;;14.00;99.90;;;;;;5054978;28;20402;-73
2022/09/29 11:48:23;;;;;;;5.97;3.33;;;14.00;99.90;;;;;;5055005;28;20429;-73
2022/09/29 11:50:58;;;;;;;3.13;2.60;;;14.00;99.90;;;;;;5022822;28;20749;-75
2022/09/29 11:53:43;;;;;;;7.60;3.40;;;13.90;99.90;;;;;;5034540;28;20406;-73
2022/09/29 11:56:38;;;;;;;3.67;3.37;;;14.00;99.90;;;;;;5034210;28;20438;-72
2022/09/29 11:59:09;;;;;;;3.87;3.50;;;13.90;99.90;;;;;;5034337;28;20477;-72
2022/09/29 12:01:43;;;;;;;4.50;3.00;;;13.80;99.90;;;;;;5034208;28;20426;-74
2022/09/29 12:04:21;;;;;;;3.23;2.93;;;14.20;99.90;;;;;;5034073;28;20898;-74
2022/09/29 12:06:56;;;;;;;5.00;3.77;;;14.30;99.90;;;;;;5034141;28;20972;-73
2022/09/29 12:09:37;;;;;;;4.07;3.67;;;14.40;99.90;;;;;;5034209;28;20418;-73
2022/09/29 12:12:18;;;;;;;4.23;3.30;;;14.50;99.90;;;;;;5034187;28;20488;-73
2022/09/29 12:15:07;;;;;;;3.70;3.30;;;14.20;99.90;;;;;;5034183;28;20569;-77
2022/09/29 12:17:37;;;;;;;3.50;3.00;;;14.00;99.90;;;;;;5034279;28;20916;-75
2022/09/29 12:20:13;;;;;;;3.50;2.97;;;14.00;99.90;;;;;;5033969;28;20407;-75
2022/09/29 12:22:39;;;;;;;4.37;3.13;;;14.00;99.90;;;;;;5033842;28;20872;-76
2022/09/29 12:25:14;;;;;;;5.57;3.67;;;14.20;99.90;;;;;;5034161;28;20484;-75
2022/09/29 12:27:43;;;;;;;4.50;3.57;;;14.20;99.90;;;;;;5035659;28;20204;-76
2022/09/29 12:30:17;;;;;;;3.80;3.40;;;14.20;99.90;;;;;;5039904;28;20417;-76
2022/09/29 12:32:59;;;;;;;3.17;2.90;;;14.20;99.90;;;;;;5033795;28;20406;-77
2022/09/29 12:35:33;;;;;;;3.93;3.07;;;14.50;99.90;;;;;;5033304;28;20937;-76
2022/09/29 12:38:19;;;;;;;5.10;4.30;;;14.60;99.90;;;;;;5033574;28;20422;-75
2022/09/29 12:40:53;;;;;;;3.60;3.00;;;14.50;99.90;;;;;;5032327;28;20407;-76
2022/09/29 12:43:30;;;;;;;4.20;3.30;;;14.40;99.90;;;;;;5033276;28;20410;-75
2022/09/29 12:46:17;;;;;;;3.80;3.40;;;14.60;99.90;;;;;;5033347;28;20885;-74
2022/09/29 12:49:02;;;;;;;5.03;4.10;;;14.60;99.90;;;;;;5033635;28;20396;-71
2022/09/29 12:51:44;;;;;;;12.73;9.60;;;14.60;99.90;;;;;;5040388;28;20472;-72
2022/09/29 12:54:31;;;;;;;12.00;8.20;;;15.10;99.90;;;;;;5053003;28;20558;-71
2022/09/29 12:57:03;;;;;;;20.73;13.10;;;15.30;99.90;;;;;;5053125;28;21022;-71
2022/09/29 12:59:38;;;;;;;5.60;4.80;;;15.40;99.90;;;;;;5053464;28;20895;-71
2022/09/29 13:02:21;;;;;;;5.47;4.97;;;15.00;99.90;;;;;;5053252;28;20401;-72
2022/09/29 13:04:55;;;;;;;4.47;3.93;;;15.10;99.90;;;;;;5052725;28;20413;-71
2022/09/29 13:07:35;;;;;;;6.73;5.10;;;15.10;99.90;;;;;;5052776;28;20422;-72
2022/09/29 13:10:24;;;;;;;20.93;13.80;;;15.20;99.90;;;;;;5052789;28;20401;-71
2022/09/29 13:13:29;;;;;;;3.93;3.17;;;15.40;99.90;;;;;;5041868;28;20501;-72
2022/09/29 13:16:26;;;;;;;5.67;4.83;;;15.10;99.90;;;;;;5052780;28;20922;-71